PWSweather.com
Personal Weather Stations
Station Observations
EDGELEY
Edgeley, Nd, Edgeley, ND 58433

Edgeley, NdEdgeley, ND 58433

Lat: 46.3599246, Lon: -98.7144392

Elevation: 1575

Station Type: Davis/Vantage Pro

www.edgeleyweather.com

High Low Average
Temperature 79.1°F26.2°C 63.5°F17.5°C 70.3°F21.3°C
Dew Point 65.2°F18.4°C 59.8°F15.4°C 63.1°F17.3°C
Winds 25.0 mph 40.2 kmh Calm Calm 8.0 mph N12.9 kmh N
Wind Gusts 30.0 mph48.3 kmh -- 14.0 mph22.5 kmh
Humidity 95% 58% 79%
Pressure 30.05 in1017.6 mb 29.62 in1003.0 mb -
Precipitation 0.00 in0.0 mm - -
Hour Temp Dew Point Humidity Winds Wind Gusts Pressure Precip Precip Rate Daily Precip Total
12:00 AM 65.3°F18.5°C 60.4°F15.8°C 84% 9.0 mph N14.5 kmh N 15.0 mph24.1 kmh 29.66 in1004.4 mb 0.00 in0.0 mm 0.00 in0.0 mm 0.00 in0.0 mm
12:05 AM 65.1°F18.4°C 60.2°F15.7°C 84% 8.0 mph N12.9 kmh N 15.0 mph24.1 kmh 29.66 in1004.4 mb 0.00 in0.0 mm 0.00 in0.0 mm 0.00 in0.0 mm
12:10 AM 65.0°F18.3°C 60.1°F15.6°C 84% 8.0 mph N12.9 kmh N 15.0 mph24.1 kmh 29.66 in1004.4 mb 0.00 in0.0 mm 0.00 in0.0 mm 0.00 in0.0 mm
12:15 AM 64.9°F18.3°C 60.0°F15.6°C 84% 13.0 mph N20.9 kmh N 13.0 mph20.9 kmh 29.66 in1004.4 mb 0.00 in0.0 mm 0.00 in0.0 mm 0.00 in0.0 mm
12:20 AM 64.9°F18.3°C 60.0°F15.6°C 84% 10.0 mph N16.1 kmh N 17.0 mph27.4 kmh 29.65 in1004.1 mb 0.00 in0.0 mm 0.00 in0.0 mm 0.00 in0.0 mm
12:25 AM 64.9°F18.3°C 60.0°F15.6°C 84% 9.0 mph N14.5 kmh N 17.0 mph27.4 kmh 29.65 in1004.1 mb 0.00 in0.0 mm 0.00 in0.0 mm 0.00 in0.0 mm
12:30 AM 65.0°F18.3°C 60.1°F15.6°C 84% 7.0 mph N11.3 kmh N 7.0 mph11.3 kmh 29.65 in1004.1 mb 0.00 in0.0 mm 0.00 in0.0 mm 0.00 in0.0 mm
12:35 AM 64.9°F18.3°C 59.6°F15.3°C 83% 7.0 mph N11.3 kmh N 16.0 mph25.7 kmh 29.65 in1004.1 mb 0.00 in0.0 mm 0.00 in0.0 mm 0.00 in0.0 mm
12:40 AM 64.8°F18.2°C 59.5°F15.3°C 83% 14.0 mph N22.5 kmh N 19.0 mph30.6 kmh 29.65 in1004.1 mb 0.00 in0.0 mm 0.00 in0.0 mm 0.00 in0.0 mm
12:45 AM 64.7°F18.2°C 59.8°F15.4°C 84% 12.0 mph N19.3 kmh N 14.0 mph22.5 kmh 29.65 in1004.1 mb 0.00 in0.0 mm 0.00 in0.0 mm 0.00 in0.0 mm
12:50 AM 64.5°F18.1°C 59.6°F15.3°C 84% 14.0 mph N22.5 kmh N 24.0 mph38.6 kmh 29.65 in1004.1 mb 0.00 in0.0 mm 0.00 in0.0 mm 0.00 in0.0 mm
12:55 AM 64.4°F18.0°C 59.5°F15.3°C 84% 7.0 mph N11.3 kmh N 24.0 mph38.6 kmh 29.64 in1003.7 mb 0.00 in0.0 mm 0.00 in0.0 mm 0.00 in0.0 mm
01:00 AM 64.4°F18.0°C 59.8°F15.4°C 85% 7.0 mph N11.3 kmh N 10.0 mph16.1 kmh 29.64 in1003.7 mb 0.00 in0.0 mm 0.00 in0.0 mm 0.00 in0.0 mm
01:05 AM 64.4°F18.0°C 59.8°F15.4°C 85% 12.0 mph N19.3 kmh N 14.0 mph22.5 kmh 29.64 in1003.7 mb 0.00 in0.0 mm 0.00 in0.0 mm 0.00 in0.0 mm
01:10 AM 64.3°F17.9°C 60.0°F15.6°C 86% 9.0 mph N14.5 kmh N 17.0 mph27.4 kmh 29.64 in1003.7 mb 0.00 in0.0 mm 0.00 in0.0 mm 0.00 in0.0 mm
01:15 AM 64.3°F17.9°C 60.0°F15.6°C 86% 11.0 mph N17.7 kmh N 15.0 mph24.1 kmh 29.64 in1003.7 mb 0.00 in0.0 mm 0.00 in0.0 mm 0.00 in0.0 mm
01:20 AM 64.4°F18.0°C 60.1°F15.6°C 86% 10.0 mph N16.1 kmh N 20.0 mph32.2 kmh 29.64 in1003.7 mb 0.00 in0.0 mm 0.00 in0.0 mm 0.00 in0.0 mm
01:25 AM 64.3°F17.9°C 60.4°F15.8°C 87% 12.0 mph N19.3 kmh N 25.0 mph40.2 kmh 29.63 in1003.4 mb 0.00 in0.0 mm 0.00 in0.0 mm 0.00 in0.0 mm
01:30 AM 64.3°F17.9°C 60.4°F15.8°C 87% 8.0 mph N12.9 kmh N 19.0 mph30.6 kmh 29.63 in1003.4 mb 0.00 in0.0 mm 0.00 in0.0 mm 0.00 in0.0 mm
01:35 AM 64.4°F18.0°C 60.5°F15.8°C 87% 12.0 mph N19.3 kmh N 22.0 mph35.4 kmh 29.63 in1003.4 mb 0.00 in0.0 mm 0.00 in0.0 mm 0.00 in0.0 mm
01:40 AM 64.3°F17.9°C 60.4°F15.8°C 87% 8.0 mph N12.9 kmh N 22.0 mph35.4 kmh 29.63 in1003.4 mb 0.00 in0.0 mm 0.00 in0.0 mm 0.00 in0.0 mm
01:45 AM 64.3°F17.9°C 60.4°F15.8°C 87% 10.0 mph N16.1 kmh N 10.0 mph16.1 kmh 29.63 in1003.4 mb 0.00 in0.0 mm 0.00 in0.0 mm 0.00 in0.0 mm
01:50 AM 64.2°F17.9°C 60.6°F15.9°C 88% 7.0 mph N11.3 kmh N 19.0 mph30.6 kmh 29.63 in1003.4 mb 0.00 in0.0 mm 0.00 in0.0 mm 0.00 in0.0 mm
01:55 AM 64.2°F17.9°C 60.6°F15.9°C 88% 10.0 mph N16.1 kmh N 19.0 mph30.6 kmh 29.63 in1003.4 mb 0.00 in0.0 mm 0.00 in0.0 mm 0.00 in0.0 mm
02:00 AM 64.1°F17.8°C 60.5°F15.8°C 88% 12.0 mph N19.3 kmh N 12.0 mph19.3 kmh 29.63 in1003.4 mb 0.00 in0.0 mm 0.00 in0.0 mm 0.00 in0.0 mm
02:05 AM 64.1°F17.8°C 60.8°F16.0°C 89% 8.0 mph N12.9 kmh N 22.0 mph35.4 kmh 29.63 in1003.4 mb 0.00 in0.0 mm 0.00 in0.0 mm 0.00 in0.0 mm
02:10 AM 63.8°F17.7°C 60.8°F16.0°C 90% 8.0 mph N12.9 kmh N 22.0 mph35.4 kmh 29.63 in1003.4 mb 0.00 in0.0 mm 0.00 in0.0 mm 0.00 in0.0 mm
02:15 AM 63.7°F17.6°C 61.0°F16.1°C 91% 9.0 mph N14.5 kmh N 12.0 mph19.3 kmh 29.62 in1003.0 mb 0.00 in0.0 mm 0.00 in0.0 mm 0.00 in0.0 mm
02:20 AM 63.5°F17.5°C 61.1°F16.2°C 92% 9.0 mph N14.5 kmh N 15.0 mph24.1 kmh 29.62 in1003.0 mb 0.00 in0.0 mm 0.00 in0.0 mm 0.00 in0.0 mm
02:25 AM 63.5°F17.5°C 61.1°F16.2°C 92% 8.0 mph N12.9 kmh N 17.0 mph27.4 kmh 29.62 in1003.0 mb 0.00 in0.0 mm 0.00 in0.0 mm 0.00 in0.0 mm
02:30 AM 63.5°F17.5°C 61.1°F16.2°C 92% 7.0 mph N11.3 kmh N 13.0 mph20.9 kmh 29.62 in1003.0 mb 0.00 in0.0 mm 0.00 in0.0 mm 0.00 in0.0 mm
02:35 AM 63.6°F17.6°C 61.2°F16.2°C 92% 5.0 mph N8.0 kmh N 15.0 mph24.1 kmh 29.62 in1003.0 mb 0.00 in0.0 mm 0.00 in0.0 mm 0.00 in0.0 mm
02:40 AM 63.7°F17.6°C 61.3°F16.3°C 92% 7.0 mph N11.3 kmh N 19.0 mph30.6 kmh 29.62 in1003.0 mb 0.00 in0.0 mm 0.00 in0.0 mm 0.00 in0.0 mm
02:45 AM 63.9°F17.7°C 61.5°F16.4°C 92% 7.0 mph N11.3 kmh N 10.0 mph16.1 kmh 29.62 in1003.0 mb 0.00 in0.0 mm 0.00 in0.0 mm 0.00 in0.0 mm
02:50 AM 64.2°F17.9°C 61.8°F16.6°C 92% 6.0 mph N9.7 kmh N 15.0 mph24.1 kmh 29.62 in1003.0 mb 0.00 in0.0 mm 0.00 in0.0 mm 0.00 in0.0 mm
02:55 AM 64.4°F18.0°C 62.0°F16.7°C 92% 8.0 mph N12.9 kmh N 15.0 mph24.1 kmh 29.62 in1003.0 mb 0.00 in0.0 mm 0.00 in0.0 mm 0.00 in0.0 mm
03:00 AM 64.6°F18.1°C 62.2°F16.8°C 92% 6.0 mph N9.7 kmh N 9.0 mph14.5 kmh 29.62 in1003.0 mb 0.00 in0.0 mm 0.00 in0.0 mm 0.00 in0.0 mm
03:05 AM 64.7°F18.2°C 62.0°F16.7°C 91% 4.0 mph N6.4 kmh N 17.0 mph27.4 kmh 29.62 in1003.0 mb 0.00 in0.0 mm 0.00 in0.0 mm 0.00 in0.0 mm
03:10 AM 64.7°F18.2°C 62.0°F16.7°C 91% 14.0 mph N22.5 kmh N 17.0 mph27.4 kmh 29.62 in1003.0 mb 0.00 in0.0 mm 0.00 in0.0 mm 0.00 in0.0 mm
03:15 AM 64.7°F18.2°C 62.0°F16.7°C 91% 7.0 mph N11.3 kmh N 13.0 mph20.9 kmh 29.62 in1003.0 mb 0.00 in0.0 mm 0.00 in0.0 mm 0.00 in0.0 mm
03:20 AM 64.7°F18.2°C 62.0°F16.7°C 91% 3.0 mph N4.8 kmh N 16.0 mph25.7 kmh 29.63 in1003.4 mb 0.00 in0.0 mm 0.00 in0.0 mm 0.00 in0.0 mm
03:25 AM 64.7°F18.2°C 62.3°F16.8°C 92% 10.0 mph N16.1 kmh N 16.0 mph25.7 kmh 29.62 in1003.0 mb 0.00 in0.0 mm 0.00 in0.0 mm 0.00 in0.0 mm
03:30 AM 64.7°F18.2°C 62.3°F16.8°C 92% 4.0 mph N6.4 kmh N 5.0 mph8.0 kmh 29.63 in1003.4 mb 0.00 in0.0 mm 0.00 in0.0 mm 0.00 in0.0 mm
03:35 AM 64.7°F18.2°C 62.3°F16.8°C 92% 4.0 mph N6.4 kmh N 13.0 mph20.9 kmh 29.63 in1003.4 mb 0.00 in0.0 mm 0.00 in0.0 mm 0.00 in0.0 mm
03:40 AM 64.8°F18.2°C 62.4°F16.9°C 92% 3.0 mph N4.8 kmh N 13.0 mph20.9 kmh 29.63 in1003.4 mb 0.00 in0.0 mm 0.00 in0.0 mm 0.00 in0.0 mm
03:45 AM 64.9°F18.3°C 62.5°F16.9°C 92% 8.0 mph N12.9 kmh N 12.0 mph19.3 kmh 29.63 in1003.4 mb 0.00 in0.0 mm 0.00 in0.0 mm 0.00 in0.0 mm
03:50 AM 64.9°F18.3°C 62.5°F16.9°C 92% 8.0 mph N12.9 kmh N 15.0 mph24.1 kmh 29.64 in1003.7 mb 0.00 in0.0 mm 0.00 in0.0 mm 0.00 in0.0 mm
03:55 AM 65.0°F18.3°C 62.6°F17.0°C 92% 6.0 mph N9.7 kmh N 15.0 mph24.1 kmh 29.64 in1003.7 mb 0.00 in0.0 mm 0.00 in0.0 mm 0.00 in0.0 mm
04:00 AM 65.0°F18.3°C 62.6°F17.0°C 92% 8.0 mph N12.9 kmh N 9.0 mph14.5 kmh 29.64 in1003.7 mb 0.00 in0.0 mm 0.00 in0.0 mm 0.00 in0.0 mm
04:05 AM 65.0°F18.3°C 62.6°F17.0°C 92% 7.0 mph N11.3 kmh N 12.0 mph19.3 kmh 29.64 in1003.7 mb 0.00 in0.0 mm 0.00 in0.0 mm 0.00 in0.0 mm
04:10 AM 65.1°F18.4°C 62.4°F16.9°C 91% 5.0 mph N8.0 kmh N 15.0 mph24.1 kmh 29.64 in1003.7 mb 0.00 in0.0 mm 0.00 in0.0 mm 0.00 in0.0 mm
04:15 AM 65.2°F18.4°C 62.5°F16.9°C 91% 13.0 mph N20.9 kmh N 16.0 mph25.7 kmh 29.65 in1004.1 mb 0.00 in0.0 mm 0.00 in0.0 mm 0.00 in0.0 mm
04:20 AM 65.2°F18.4°C 62.5°F16.9°C 91% 11.0 mph N17.7 kmh N 16.0 mph25.7 kmh 29.65 in1004.1 mb 0.00 in0.0 mm 0.00 in0.0 mm 0.00 in0.0 mm
04:25 AM 65.2°F18.4°C 62.5°F16.9°C 91% 7.0 mph N11.3 kmh N 16.0 mph25.7 kmh 29.65 in1004.1 mb 0.00 in0.0 mm 0.00 in0.0 mm 0.00 in0.0 mm
04:30 AM 65.2°F18.4°C 62.8°F17.1°C 92% 4.0 mph N6.4 kmh N 8.0 mph12.9 kmh 29.65 in1004.1 mb 0.00 in0.0 mm 0.00 in0.0 mm 0.00 in0.0 mm
04:35 AM 65.2°F18.4°C 62.8°F17.1°C 92% 4.0 mph N6.4 kmh N 13.0 mph20.9 kmh 29.65 in1004.1 mb 0.00 in0.0 mm 0.00 in0.0 mm 0.00 in0.0 mm
04:40 AM 65.1°F18.4°C 62.7°F17.1°C 92% 9.0 mph N14.5 kmh N 16.0 mph25.7 kmh 29.66 in1004.4 mb 0.00 in0.0 mm 0.00 in0.0 mm 0.00 in0.0 mm
04:45 AM 65.1°F18.4°C 62.4°F16.9°C 91% 9.0 mph N14.5 kmh N 10.0 mph16.1 kmh 29.66 in1004.4 mb 0.00 in0.0 mm 0.00 in0.0 mm 0.00 in0.0 mm
04:50 AM 65.0°F18.3°C 62.6°F17.0°C 92% 12.0 mph N19.3 kmh N 17.0 mph27.4 kmh 29.66 in1004.4 mb 0.00 in0.0 mm 0.00 in0.0 mm 0.00 in0.0 mm
04:55 AM 64.9°F18.3°C 62.5°F16.9°C 92% 7.0 mph N11.3 kmh N 19.0 mph30.6 kmh 29.67 in1004.7 mb 0.00 in0.0 mm 0.00 in0.0 mm 0.00 in0.0 mm
05:00 AM 64.9°F18.3°C 62.5°F16.9°C 92% 14.0 mph N22.5 kmh N 14.0 mph22.5 kmh 29.67 in1004.7 mb 0.00 in0.0 mm 0.00 in0.0 mm 0.00 in0.0 mm
05:05 AM 64.9°F18.3°C 62.5°F16.9°C 92% 7.0 mph N11.3 kmh N 19.0 mph30.6 kmh 29.67 in1004.7 mb 0.00 in0.0 mm 0.00 in0.0 mm 0.00 in0.0 mm
05:10 AM 64.9°F18.3°C 62.5°F16.9°C 92% 4.0 mph N6.4 kmh N 19.0 mph30.6 kmh 29.67 in1004.7 mb 0.00 in0.0 mm 0.00 in0.0 mm 0.00 in0.0 mm
05:15 AM 64.9°F18.3°C 62.5°F16.9°C 92% 5.0 mph N8.0 kmh N 9.0 mph14.5 kmh 29.67 in1004.7 mb 0.00 in0.0 mm 0.00 in0.0 mm 0.00 in0.0 mm
05:20 AM 64.9°F18.3°C 62.5°F16.9°C 92% 5.0 mph N8.0 kmh N 15.0 mph24.1 kmh 29.68 in1005.1 mb 0.00 in0.0 mm 0.00 in0.0 mm 0.00 in0.0 mm
05:25 AM 64.9°F18.3°C 62.5°F16.9°C 92% 8.0 mph N12.9 kmh N 15.0 mph24.1 kmh 29.68 in1005.1 mb 0.00 in0.0 mm 0.00 in0.0 mm 0.00 in0.0 mm
05:30 AM 65.0°F18.3°C 62.6°F17.0°C 92% 12.0 mph N19.3 kmh N 14.0 mph22.5 kmh 29.68 in1005.1 mb 0.00 in0.0 mm 0.00 in0.0 mm 0.00 in0.0 mm
05:35 AM 65.0°F18.3°C 62.6°F17.0°C 92% 5.0 mph N8.0 kmh N 16.0 mph25.7 kmh 29.69 in1005.4 mb 0.00 in0.0 mm 0.00 in0.0 mm 0.00 in0.0 mm
05:40 AM 65.1°F18.4°C 63.0°F17.2°C 93% 7.0 mph N11.3 kmh N 17.0 mph27.4 kmh 29.70 in1005.8 mb 0.00 in0.0 mm 0.00 in0.0 mm 0.00 in0.0 mm
05:45 AM 65.0°F18.3°C 62.9°F17.2°C 93% 5.0 mph N8.0 kmh N 13.0 mph20.9 kmh 29.70 in1005.8 mb 0.00 in0.0 mm 0.00 in0.0 mm 0.00 in0.0 mm
05:50 AM 64.8°F18.2°C 63.0°F17.2°C 94% 15.0 mph N24.1 kmh N 20.0 mph32.2 kmh 29.71 in1006.1 mb 0.00 in0.0 mm 0.00 in0.0 mm 0.00 in0.0 mm
05:55 AM 64.4°F18.0°C 62.6°F17.0°C 94% 15.0 mph N24.1 kmh N 20.0 mph32.2 kmh 29.71 in1006.1 mb 0.00 in0.0 mm 0.00 in0.0 mm 0.00 in0.0 mm
06:00 AM 64.1°F17.8°C 62.3°F16.8°C 94% 8.0 mph N12.9 kmh N 9.0 mph14.5 kmh 29.71 in1006.1 mb 0.00 in0.0 mm 0.00 in0.0 mm 0.00 in0.0 mm
06:05 AM 63.9°F17.7°C 62.1°F16.7°C 94% 5.0 mph N8.0 kmh N 19.0 mph30.6 kmh 29.72 in1006.4 mb 0.00 in0.0 mm 0.00 in0.0 mm 0.00 in0.0 mm
06:10 AM 63.9°F17.7°C 62.4°F16.9°C 95% 10.0 mph N16.1 kmh N 21.0 mph33.8 kmh 29.73 in1006.8 mb 0.00 in0.0 mm 0.00 in0.0 mm 0.00 in0.0 mm
06:15 AM 63.8°F17.7°C 62.3°F16.8°C 95% 5.0 mph N8.0 kmh N 11.0 mph17.7 kmh 29.73 in1006.8 mb 0.00 in0.0 mm 0.00 in0.0 mm 0.00 in0.0 mm
06:20 AM 63.8°F17.7°C 62.3°F16.8°C 95% 8.0 mph N12.9 kmh N 21.0 mph33.8 kmh 29.74 in1007.1 mb 0.00 in0.0 mm 0.00 in0.0 mm 0.00 in0.0 mm
06:25 AM 63.8°F17.7°C 62.3°F16.8°C 95% 4.0 mph N6.4 kmh N 21.0 mph33.8 kmh 29.75 in1007.5 mb 0.00 in0.0 mm 0.00 in0.0 mm 0.00 in0.0 mm
06:30 AM 63.9°F17.7°C 62.4°F16.9°C 95% 13.0 mph N20.9 kmh N 13.0 mph20.9 kmh 29.75 in1007.5 mb 0.00 in0.0 mm 0.00 in0.0 mm 0.00 in0.0 mm
06:35 AM 63.8°F17.7°C 62.3°F16.8°C 95% 10.0 mph N16.1 kmh N 14.0 mph22.5 kmh 29.75 in1007.5 mb 0.00 in0.0 mm 0.00 in0.0 mm 0.00 in0.0 mm
06:40 AM 63.7°F17.6°C 62.2°F16.8°C 95% 13.0 mph N20.9 kmh N 18.0 mph29.0 kmh 29.75 in1007.5 mb 0.00 in0.0 mm 0.00 in0.0 mm 0.00 in0.0 mm
06:45 AM 63.7°F17.6°C 62.2°F16.8°C 95% 10.0 mph N16.1 kmh N 14.0 mph22.5 kmh 29.76 in1007.8 mb 0.00 in0.0 mm 0.00 in0.0 mm 0.00 in0.0 mm
06:50 AM 63.7°F17.6°C 62.2°F16.8°C 95% 16.0 mph N25.7 kmh N 18.0 mph29.0 kmh 29.76 in1007.8 mb 0.00 in0.0 mm 0.00 in0.0 mm 0.00 in0.0 mm
06:55 AM 63.8°F17.7°C 62.3°F16.8°C 95% 12.0 mph N19.3 kmh N 24.0 mph38.6 kmh 29.76 in1007.8 mb 0.00 in0.0 mm 0.00 in0.0 mm 0.00 in0.0 mm
07:00 AM 63.8°F17.7°C 62.0°F16.7°C 94% 6.0 mph N9.7 kmh N 16.0 mph25.7 kmh 29.77 in1008.1 mb 0.00 in0.0 mm 0.00 in0.0 mm 0.00 in0.0 mm
07:05 AM 63.9°F17.7°C 62.4°F16.9°C 95% 4.0 mph N6.4 kmh N 21.0 mph33.8 kmh 29.77 in1008.1 mb 0.00 in0.0 mm 0.00 in0.0 mm 0.00 in0.0 mm
07:10 AM 64.0°F17.8°C 62.5°F16.9°C 95% 11.0 mph N17.7 kmh N 21.0 mph33.8 kmh 29.77 in1008.1 mb 0.00 in0.0 mm 0.00 in0.0 mm 0.00 in0.0 mm
07:15 AM 64.0°F17.8°C 62.2°F16.8°C 94% 5.0 mph N8.0 kmh N 11.0 mph17.7 kmh 29.78 in1008.5 mb 0.00 in0.0 mm 0.00 in0.0 mm 0.00 in0.0 mm
07:20 AM 63.9°F17.7°C 62.4°F16.9°C 95% 8.0 mph N12.9 kmh N 16.0 mph25.7 kmh 29.78 in1008.5 mb 0.00 in0.0 mm 0.00 in0.0 mm 0.00 in0.0 mm
07:25 AM 64.0°F17.8°C 62.5°F16.9°C 95% 9.0 mph N14.5 kmh N 19.0 mph30.6 kmh 29.78 in1008.5 mb 0.00 in0.0 mm 0.00 in0.0 mm 0.00 in0.0 mm
07:30 AM 64.0°F17.8°C 62.5°F16.9°C 95% 13.0 mph N20.9 kmh N 15.0 mph24.1 kmh 29.79 in1008.8 mb 0.00 in0.0 mm 0.00 in0.0 mm 0.00 in0.0 mm
07:35 AM 64.1°F17.8°C 62.6°F17.0°C 95% 13.0 mph N20.9 kmh N 17.0 mph27.4 kmh 29.79 in1008.8 mb 0.00 in0.0 mm 0.00 in0.0 mm 0.00 in0.0 mm
07:40 AM 64.2°F17.9°C 62.4°F16.9°C 94% 11.0 mph N17.7 kmh N 19.0 mph30.6 kmh 29.79 in1008.8 mb 0.00 in0.0 mm 0.00 in0.0 mm 0.00 in0.0 mm
07:45 AM 64.3°F17.9°C 62.2°F16.8°C 93% 7.0 mph N11.3 kmh N 10.0 mph16.1 kmh 29.80 in1009.1 mb 0.00 in0.0 mm 0.00 in0.0 mm 0.00 in0.0 mm
07:50 AM 64.4°F18.0°C 62.3°F16.8°C 93% 12.0 mph N19.3 kmh N 18.0 mph29.0 kmh 29.80 in1009.1 mb 0.00 in0.0 mm 0.00 in0.0 mm 0.00 in0.0 mm
07:55 AM 64.6°F18.1°C 62.5°F16.9°C 93% 15.0 mph N24.1 kmh N 19.0 mph30.6 kmh 29.80 in1009.1 mb 0.00 in0.0 mm 0.00 in0.0 mm 0.00 in0.0 mm
08:00 AM 64.8°F18.2°C 62.4°F16.9°C 92% 16.0 mph N25.7 kmh N 17.0 mph27.4 kmh 29.81 in1009.5 mb 0.00 in0.0 mm 0.00 in0.0 mm 0.00 in0.0 mm
08:05 AM 64.9°F18.3°C 62.5°F16.9°C 92% 12.0 mph N19.3 kmh N 21.0 mph33.8 kmh 29.81 in1009.5 mb 0.00 in0.0 mm 0.00 in0.0 mm 0.00 in0.0 mm
08:10 AM 65.0°F18.3°C 62.3°F16.8°C 91% 14.0 mph N22.5 kmh N 21.0 mph33.8 kmh 29.81 in1009.5 mb 0.00 in0.0 mm 0.00 in0.0 mm 0.00 in0.0 mm
08:15 AM 65.2°F18.4°C 62.5°F16.9°C 91% 10.0 mph N16.1 kmh N 12.0 mph19.3 kmh 29.81 in1009.5 mb 0.00 in0.0 mm 0.00 in0.0 mm 0.00 in0.0 mm
08:20 AM 65.5°F18.6°C 63.1°F17.3°C 92% 17.0 mph N27.4 kmh N 23.0 mph37.0 kmh 29.82 in1009.8 mb 0.00 in0.0 mm 0.00 in0.0 mm 0.00 in0.0 mm
08:25 AM 65.7°F18.7°C 62.7°F17.1°C 90% 8.0 mph N12.9 kmh N 23.0 mph37.0 kmh 29.83 in1010.2 mb 0.00 in0.0 mm 0.00 in0.0 mm 0.00 in0.0 mm
08:30 AM 65.8°F18.8°C 62.5°F16.9°C 89% 9.0 mph N14.5 kmh N 9.0 mph14.5 kmh 29.83 in1010.2 mb 0.00 in0.0 mm 0.00 in0.0 mm 0.00 in0.0 mm
08:35 AM 65.8°F18.8°C 62.5°F16.9°C 89% 6.0 mph N9.7 kmh N 19.0 mph30.6 kmh 29.83 in1010.2 mb 0.00 in0.0 mm 0.00 in0.0 mm 0.00 in0.0 mm
08:40 AM 65.9°F18.8°C 62.6°F17.0°C 89% 9.0 mph N14.5 kmh N 23.0 mph37.0 kmh 29.83 in1010.2 mb 0.00 in0.0 mm 0.00 in0.0 mm 0.00 in0.0 mm
08:45 AM 65.9°F18.8°C 62.3°F16.8°C 88% 10.0 mph N16.1 kmh N 11.0 mph17.7 kmh 29.84 in1010.5 mb 0.00 in0.0 mm 0.00 in0.0 mm 0.00 in0.0 mm
08:50 AM 66.1°F18.9°C 62.5°F16.9°C 88% 10.0 mph N16.1 kmh N 20.0 mph32.2 kmh 29.85 in1010.8 mb 0.00 in0.0 mm 0.00 in0.0 mm 0.00 in0.0 mm
08:55 AM 66.2°F19.0°C 62.2°F16.8°C 87% 8.0 mph N12.9 kmh N 22.0 mph35.4 kmh 29.85 in1010.8 mb 0.00 in0.0 mm 0.00 in0.0 mm 0.00 in0.0 mm
09:00 AM 66.3°F19.1°C 62.6°F17.0°C 88% 14.0 mph N22.5 kmh N 18.0 mph29.0 kmh 29.85 in1010.8 mb 0.00 in0.0 mm 0.00 in0.0 mm 0.00 in0.0 mm
09:05 AM 66.6°F19.2°C 62.9°F17.2°C 88% 8.0 mph N12.9 kmh N 22.0 mph35.4 kmh 29.85 in1010.8 mb 0.00 in0.0 mm 0.00 in0.0 mm 0.00 in0.0 mm
09:10 AM 67.0°F19.4°C 63.3°F17.4°C 88% 8.0 mph N12.9 kmh N 22.0 mph35.4 kmh 29.85 in1010.8 mb 0.00 in0.0 mm 0.00 in0.0 mm 0.00 in0.0 mm
09:15 AM 67.6°F19.8°C 63.6°F17.6°C 87% 13.0 mph N20.9 kmh N 13.0 mph20.9 kmh 29.85 in1010.8 mb 0.00 in0.0 mm 0.00 in0.0 mm 0.00 in0.0 mm
09:20 AM 67.8°F19.9°C 63.5°F17.5°C 86% 7.0 mph N11.3 kmh N 22.0 mph35.4 kmh 29.85 in1010.8 mb 0.00 in0.0 mm 0.00 in0.0 mm 0.00 in0.0 mm
09:25 AM 67.9°F19.9°C 63.2°F17.3°C 85% 10.0 mph N16.1 kmh N 27.0 mph43.5 kmh 29.86 in1011.2 mb 0.00 in0.0 mm 0.00 in0.0 mm 0.00 in0.0 mm
09:30 AM 67.6°F19.8°C 62.9°F17.2°C 85% 8.0 mph N12.9 kmh N 13.0 mph20.9 kmh 29.86 in1011.2 mb 0.00 in0.0 mm 0.00 in0.0 mm 0.00 in0.0 mm
09:35 AM 67.5°F19.7°C 62.5°F16.9°C 84% 11.0 mph N17.7 kmh N 22.0 mph35.4 kmh 29.86 in1011.2 mb 0.00 in0.0 mm 0.00 in0.0 mm 0.00 in0.0 mm
09:40 AM 67.6°F19.8°C 62.9°F17.2°C 85% 6.0 mph N9.7 kmh N 22.0 mph35.4 kmh 29.87 in1011.5 mb 0.00 in0.0 mm 0.00 in0.0 mm 0.00 in0.0 mm
09:45 AM 67.9°F19.9°C 63.2°F17.3°C 85% 14.0 mph N22.5 kmh N 14.0 mph22.5 kmh 29.87 in1011.5 mb 0.00 in0.0 mm 0.00 in0.0 mm 0.00 in0.0 mm
09:50 AM 68.3°F20.2°C 63.3°F17.4°C 84% 13.0 mph N20.9 kmh N 20.0 mph32.2 kmh 29.87 in1011.5 mb 0.00 in0.0 mm 0.00 in0.0 mm 0.00 in0.0 mm
09:55 AM 68.5°F20.3°C 63.1°F17.3°C 83% 11.0 mph N17.7 kmh N 23.0 mph37.0 kmh 29.87 in1011.5 mb 0.00 in0.0 mm 0.00 in0.0 mm 0.00 in0.0 mm
10:00 AM 68.7°F20.4°C 63.3°F17.4°C 83% 11.0 mph N17.7 kmh N 16.0 mph25.7 kmh 29.88 in1011.9 mb 0.00 in0.0 mm 0.00 in0.0 mm 0.00 in0.0 mm
10:05 AM 68.8°F20.4°C 63.1°F17.3°C 82% 11.0 mph N17.7 kmh N 20.0 mph32.2 kmh 29.88 in1011.9 mb 0.00 in0.0 mm 0.00 in0.0 mm 0.00 in0.0 mm
10:10 AM 68.8°F20.4°C 62.7°F17.1°C 81% 22.0 mph N35.4 kmh N 27.0 mph43.5 kmh 29.88 in1011.9 mb 0.00 in0.0 mm 0.00 in0.0 mm 0.00 in0.0 mm
10:15 AM 68.8°F20.4°C 63.1°F17.3°C 82% 17.0 mph N27.4 kmh N 17.0 mph27.4 kmh 29.88 in1011.9 mb 0.00 in0.0 mm 0.00 in0.0 mm 0.00 in0.0 mm
10:20 AM 68.6°F20.3°C 62.5°F16.9°C 81% 10.0 mph N16.1 kmh N 29.0 mph46.7 kmh 29.89 in1012.2 mb 0.00 in0.0 mm 0.00 in0.0 mm 0.00 in0.0 mm
10:25 AM 68.5°F20.3°C 62.8°F17.1°C 82% 12.0 mph N19.3 kmh N 29.0 mph46.7 kmh 29.89 in1012.2 mb 0.00 in0.0 mm 0.00 in0.0 mm 0.00 in0.0 mm
10:30 AM 68.5°F20.3°C 63.1°F17.3°C 83% 18.0 mph N29.0 kmh N 18.0 mph29.0 kmh 29.90 in1012.5 mb 0.00 in0.0 mm 0.00 in0.0 mm 0.00 in0.0 mm
10:35 AM 68.5°F20.3°C 62.8°F17.1°C 82% 8.0 mph N12.9 kmh N 24.0 mph38.6 kmh 29.89 in1012.2 mb 0.00 in0.0 mm 0.00 in0.0 mm 0.00 in0.0 mm
10:40 AM 68.6°F20.3°C 62.9°F17.2°C 82% 17.0 mph N27.4 kmh N 27.0 mph43.5 kmh 29.89 in1012.2 mb 0.00 in0.0 mm 0.00 in0.0 mm 0.00 in0.0 mm
10:45 AM 69.3°F20.7°C 63.2°F17.3°C 81% 20.0 mph N32.2 kmh N 20.0 mph32.2 kmh 29.89 in1012.2 mb 0.00 in0.0 mm 0.00 in0.0 mm 0.00 in0.0 mm
10:50 AM 69.9°F21.1°C 63.1°F17.3°C 79% 16.0 mph N25.7 kmh N 27.0 mph43.5 kmh 29.89 in1012.2 mb 0.00 in0.0 mm 0.00 in0.0 mm 0.00 in0.0 mm
10:55 AM 70.4°F21.3°C 63.2°F17.3°C 78% 9.0 mph N14.5 kmh N 27.0 mph43.5 kmh 29.90 in1012.5 mb 0.00 in0.0 mm 0.00 in0.0 mm 0.00 in0.0 mm
11:00 AM 70.7°F21.5°C 63.5°F17.5°C 78% 13.0 mph N20.9 kmh N 25.0 mph40.2 kmh 29.90 in1012.5 mb 0.00 in0.0 mm 0.00 in0.0 mm 0.00 in0.0 mm
11:05 AM 71.0°F21.7°C 63.8°F17.7°C 78% 13.0 mph N20.9 kmh N 25.0 mph40.2 kmh 29.90 in1012.5 mb 0.00 in0.0 mm 0.00 in0.0 mm 0.00 in0.0 mm
11:10 AM 71.2°F21.8°C 63.6°F17.6°C 77% 14.0 mph N22.5 kmh N 25.0 mph40.2 kmh 29.90 in1012.5 mb 0.00 in0.0 mm 0.00 in0.0 mm 0.00 in0.0 mm
11:15 AM 71.3°F21.8°C 63.0°F17.2°C 75% 25.0 mph N40.2 kmh N 30.0 mph48.3 kmh 29.90 in1012.5 mb 0.00 in0.0 mm 0.00 in0.0 mm 0.00 in0.0 mm
11:20 AM 71.2°F21.8°C 63.3°F17.4°C 76% 11.0 mph N17.7 kmh N 30.0 mph48.3 kmh 29.91 in1012.9 mb 0.00 in0.0 mm 0.00 in0.0 mm 0.00 in0.0 mm
11:25 AM 71.5°F21.9°C 63.6°F17.6°C 76% 11.0 mph N17.7 kmh N 30.0 mph48.3 kmh 29.91 in1012.9 mb 0.00 in0.0 mm 0.00 in0.0 mm 0.00 in0.0 mm
11:30 AM 71.7°F22.1°C 63.4°F17.4°C 75% 25.0 mph N40.2 kmh N 25.0 mph40.2 kmh 29.92 in1013.2 mb 0.00 in0.0 mm 0.00 in0.0 mm 0.00 in0.0 mm
11:35 AM 72.0°F22.2°C 63.7°F17.6°C 75% 13.0 mph N20.9 kmh N 26.0 mph41.8 kmh 29.92 in1013.2 mb 0.00 in0.0 mm 0.00 in0.0 mm 0.00 in0.0 mm
11:40 AM 72.2°F22.3°C 64.2°F17.9°C 76% 10.0 mph N16.1 kmh N 26.0 mph41.8 kmh 29.92 in1013.2 mb 0.00 in0.0 mm 0.00 in0.0 mm 0.00 in0.0 mm
11:45 AM 72.4°F22.4°C 63.7°F17.6°C 74% 6.0 mph N9.7 kmh N 15.0 mph24.1 kmh 29.92 in1013.2 mb 0.00 in0.0 mm 0.00 in0.0 mm 0.00 in0.0 mm
11:50 AM 72.4°F22.4°C 63.7°F17.6°C 74% 5.0 mph N8.0 kmh N 23.0 mph37.0 kmh 29.93 in1013.5 mb 0.00 in0.0 mm 0.00 in0.0 mm 0.00 in0.0 mm
11:55 AM 72.4°F22.4°C 63.7°F17.6°C 74% 12.0 mph N19.3 kmh N 29.0 mph46.7 kmh 29.93 in1013.5 mb 0.00 in0.0 mm 0.00 in0.0 mm 0.00 in0.0 mm
12:00 PM 72.3°F22.4°C 63.2°F17.3°C 73% 17.0 mph N27.4 kmh N 17.0 mph27.4 kmh 29.94 in1013.9 mb 0.00 in0.0 mm 0.00 in0.0 mm 0.00 in0.0 mm
12:05 PM 72.5°F22.5°C 63.8°F17.7°C 74% 17.0 mph N27.4 kmh N 25.0 mph40.2 kmh 29.94 in1013.9 mb 0.00 in0.0 mm 0.00 in0.0 mm 0.00 in0.0 mm
12:10 PM 72.6°F22.6°C 63.1°F17.3°C 72% 6.0 mph N9.7 kmh N 25.0 mph40.2 kmh 29.94 in1013.9 mb 0.00 in0.0 mm 0.00 in0.0 mm 0.00 in0.0 mm
12:15 PM 73.1°F22.8°C 65.1°F18.4°C 76% 14.0 mph N22.5 kmh N 17.0 mph27.4 kmh 29.94 in1013.9 mb 0.00 in0.0 mm 0.00 in0.0 mm 0.00 in0.0 mm
12:20 PM 73.5°F23.1°C 63.9°F17.7°C 72% 8.0 mph N12.9 kmh N 23.0 mph37.0 kmh 29.94 in1013.9 mb 0.00 in0.0 mm 0.00 in0.0 mm 0.00 in0.0 mm
12:25 PM 73.6°F23.1°C 64.0°F17.8°C 72% 13.0 mph N20.9 kmh N 23.0 mph37.0 kmh 29.94 in1013.9 mb 0.00 in0.0 mm 0.00 in0.0 mm 0.00 in0.0 mm
12:30 PM 74.0°F23.3°C 64.8°F18.2°C 73% 7.0 mph N11.3 kmh N 8.0 mph12.9 kmh 29.94 in1013.9 mb 0.00 in0.0 mm 0.00 in0.0 mm 0.00 in0.0 mm
12:35 PM 73.7°F23.2°C 64.1°F17.8°C 72% 12.0 mph N19.3 kmh N 21.0 mph33.8 kmh 29.94 in1013.9 mb 0.00 in0.0 mm 0.00 in0.0 mm 0.00 in0.0 mm
12:40 PM 73.8°F23.2°C 63.8°F17.7°C 71% 11.0 mph N17.7 kmh N 26.0 mph41.8 kmh 29.95 in1014.2 mb 0.00 in0.0 mm 0.00 in0.0 mm 0.00 in0.0 mm
12:45 PM 73.9°F23.3°C 63.1°F17.3°C 69% 7.0 mph N11.3 kmh N 10.0 mph16.1 kmh 29.95 in1014.2 mb 0.00 in0.0 mm 0.00 in0.0 mm 0.00 in0.0 mm
12:50 PM 74.2°F23.4°C 63.8°F17.7°C 70% 10.0 mph N16.1 kmh N 22.0 mph35.4 kmh 29.95 in1014.2 mb 0.00 in0.0 mm 0.00 in0.0 mm 0.00 in0.0 mm
12:55 PM 74.4°F23.6°C 64.8°F18.2°C 72% 9.0 mph N14.5 kmh N 22.0 mph35.4 kmh 29.96 in1014.6 mb 0.00 in0.0 mm 0.00 in0.0 mm 0.00 in0.0 mm
01:00 PM 74.4°F23.6°C 64.0°F17.8°C 70% 7.0 mph N11.3 kmh N 14.0 mph22.5 kmh 29.96 in1014.6 mb 0.00 in0.0 mm 0.00 in0.0 mm 0.00 in0.0 mm
01:05 PM 74.5°F23.6°C 64.9°F18.3°C 72% 13.0 mph N20.9 kmh N 20.0 mph32.2 kmh 29.96 in1014.6 mb 0.00 in0.0 mm 0.00 in0.0 mm 0.00 in0.0 mm
01:10 PM 74.4°F23.6°C 64.4°F18.0°C 71% 19.0 mph N30.6 kmh N 22.0 mph35.4 kmh 29.96 in1014.6 mb 0.00 in0.0 mm 0.00 in0.0 mm 0.00 in0.0 mm
01:15 PM 74.5°F23.6°C 64.5°F18.1°C 71% 16.0 mph N25.7 kmh N 21.0 mph33.8 kmh 29.97 in1014.9 mb 0.00 in0.0 mm 0.00 in0.0 mm 0.00 in0.0 mm
01:20 PM 74.6°F23.7°C 63.8°F17.7°C 69% 10.0 mph N16.1 kmh N 22.0 mph35.4 kmh 29.97 in1014.9 mb 0.00 in0.0 mm 0.00 in0.0 mm 0.00 in0.0 mm
01:25 PM 74.6°F23.7°C 64.6°F18.1°C 71% 13.0 mph N20.9 kmh N 23.0 mph37.0 kmh 29.97 in1014.9 mb 0.00 in0.0 mm 0.00 in0.0 mm 0.00 in0.0 mm
01:30 PM 74.9°F23.8°C 63.6°F17.6°C 68% 15.0 mph N24.1 kmh N 18.0 mph29.0 kmh 29.97 in1014.9 mb 0.00 in0.0 mm 0.00 in0.0 mm 0.00 in0.0 mm
01:35 PM 75.0°F23.9°C 64.2°F17.9°C 69% 15.0 mph N24.1 kmh N 23.0 mph37.0 kmh 29.97 in1014.9 mb 0.00 in0.0 mm 0.00 in0.0 mm 0.00 in0.0 mm
01:40 PM 75.3°F24.1°C 64.0°F17.8°C 68% 8.0 mph N12.9 kmh N 23.0 mph37.0 kmh 29.97 in1014.9 mb 0.00 in0.0 mm 0.00 in0.0 mm 0.00 in0.0 mm
01:45 PM 75.4°F24.1°C 64.1°F17.8°C 68% 12.0 mph N19.3 kmh N 18.0 mph29.0 kmh 29.97 in1014.9 mb 0.00 in0.0 mm 0.00 in0.0 mm 0.00 in0.0 mm
01:50 PM 75.4°F24.1°C 63.3°F17.4°C 66% 4.0 mph N6.4 kmh N 22.0 mph35.4 kmh 29.97 in1014.9 mb 0.00 in0.0 mm 0.00 in0.0 mm 0.00 in0.0 mm
01:55 PM 75.6°F24.2°C 63.9°F17.7°C 67% 7.0 mph N11.3 kmh N 22.0 mph35.4 kmh 29.98 in1015.2 mb 0.00 in0.0 mm 0.00 in0.0 mm 0.00 in0.0 mm
02:00 PM 75.7°F24.3°C 64.0°F17.8°C 67% 11.0 mph N17.7 kmh N 22.0 mph35.4 kmh 29.97 in1014.9 mb 0.00 in0.0 mm 0.00 in0.0 mm 0.00 in0.0 mm
02:05 PM 75.7°F24.3°C 63.6°F17.6°C 66% 12.0 mph N19.3 kmh N 22.0 mph35.4 kmh 29.98 in1015.2 mb 0.00 in0.0 mm 0.00 in0.0 mm 0.00 in0.0 mm
02:10 PM 75.8°F24.3°C 63.6°F17.6°C 66% 6.0 mph N9.7 kmh N 22.0 mph35.4 kmh 29.98 in1015.2 mb 0.00 in0.0 mm 0.00 in0.0 mm 0.00 in0.0 mm
02:15 PM 76.0°F24.4°C 64.7°F18.2°C 68% 5.0 mph N8.0 kmh N 10.0 mph16.1 kmh 29.97 in1014.9 mb 0.00 in0.0 mm 0.00 in0.0 mm 0.00 in0.0 mm
02:20 PM 76.2°F24.6°C 63.6°F17.6°C 65% 16.0 mph N25.7 kmh N 18.0 mph29.0 kmh 29.97 in1014.9 mb 0.00 in0.0 mm 0.00 in0.0 mm 0.00 in0.0 mm
02:25 PM 76.4°F24.7°C 63.8°F17.7°C 65% 11.0 mph N17.7 kmh N 19.0 mph30.6 kmh 29.97 in1014.9 mb 0.00 in0.0 mm 0.00 in0.0 mm 0.00 in0.0 mm
02:30 PM 76.5°F24.7°C 64.3°F17.9°C 66% 12.0 mph N19.3 kmh N 22.0 mph35.4 kmh 29.97 in1014.9 mb 0.00 in0.0 mm 0.00 in0.0 mm 0.00 in0.0 mm
02:35 PM 76.4°F24.7°C 63.3°F17.4°C 64% 9.0 mph N14.5 kmh N 22.0 mph35.4 kmh 29.98 in1015.2 mb 0.00 in0.0 mm 0.00 in0.0 mm 0.00 in0.0 mm
02:40 PM 76.5°F24.7°C 63.9°F17.7°C 65% 11.0 mph N17.7 kmh N 22.0 mph35.4 kmh 29.98 in1015.2 mb 0.00 in0.0 mm 0.00 in0.0 mm 0.00 in0.0 mm
02:45 PM 76.8°F24.9°C 63.7°F17.6°C 64% 9.0 mph N14.5 kmh N 15.0 mph24.1 kmh 29.98 in1015.2 mb 0.00 in0.0 mm 0.00 in0.0 mm 0.00 in0.0 mm
02:50 PM 77.1°F25.1°C 64.4°F18.0°C 65% 8.0 mph N12.9 kmh N 21.0 mph33.8 kmh 29.98 in1015.2 mb 0.00 in0.0 mm 0.00 in0.0 mm 0.00 in0.0 mm
02:55 PM 77.4°F25.2°C 64.7°F18.2°C 65% 13.0 mph N20.9 kmh N 21.0 mph33.8 kmh 29.98 in1015.2 mb 0.00 in0.0 mm 0.00 in0.0 mm 0.00 in0.0 mm
03:00 PM 77.3°F25.2°C 64.2°F17.9°C 64% 7.0 mph N11.3 kmh N 13.0 mph20.9 kmh 29.99 in1015.6 mb 0.00 in0.0 mm 0.00 in0.0 mm 0.00 in0.0 mm
03:05 PM 77.1°F25.1°C 63.1°F17.3°C 62% 18.0 mph N29.0 kmh N 22.0 mph35.4 kmh 29.99 in1015.6 mb 0.00 in0.0 mm 0.00 in0.0 mm 0.00 in0.0 mm
03:10 PM 77.3°F25.2°C 62.8°F17.1°C 61% 5.0 mph N8.0 kmh N 22.0 mph35.4 kmh 29.99 in1015.6 mb 0.00 in0.0 mm 0.00 in0.0 mm 0.00 in0.0 mm
03:15 PM 77.6°F25.3°C 63.1°F17.3°C 61% 8.0 mph N12.9 kmh N 15.0 mph24.1 kmh 29.99 in1015.6 mb 0.00 in0.0 mm 0.00 in0.0 mm 0.00 in0.0 mm
03:20 PM 77.9°F25.5°C 63.8°F17.7°C 62% 9.0 mph N14.5 kmh N 19.0 mph30.6 kmh 29.99 in1015.6 mb 0.00 in0.0 mm 0.00 in0.0 mm 0.00 in0.0 mm
03:25 PM 77.9°F25.5°C 64.3°F17.9°C 63% 7.0 mph N11.3 kmh N 19.0 mph30.6 kmh 29.99 in1015.6 mb 0.00 in0.0 mm 0.00 in0.0 mm 0.00 in0.0 mm
03:30 PM 77.7°F25.4°C 64.1°F17.8°C 63% 5.0 mph N8.0 kmh N 15.0 mph24.1 kmh 29.99 in1015.6 mb 0.00 in0.0 mm 0.00 in0.0 mm 0.00 in0.0 mm
03:35 PM 77.5°F25.3°C 63.5°F17.5°C 62% 14.0 mph N22.5 kmh N 19.0 mph30.6 kmh 29.99 in1015.6 mb 0.00 in0.0 mm 0.00 in0.0 mm 0.00 in0.0 mm
03:40 PM 77.6°F25.3°C 64.0°F17.8°C 63% 9.0 mph N14.5 kmh N 19.0 mph30.6 kmh 30.00 in1015.9 mb 0.00 in0.0 mm 0.00 in0.0 mm 0.00 in0.0 mm
03:45 PM 77.4°F25.2°C 63.8°F17.7°C 63% 7.0 mph N11.3 kmh N 11.0 mph17.7 kmh 30.00 in1015.9 mb 0.00 in0.0 mm 0.00 in0.0 mm 0.00 in0.0 mm
03:50 PM 77.4°F25.2°C 63.4°F17.4°C 62% 7.0 mph N11.3 kmh N 18.0 mph29.0 kmh 30.00 in1015.9 mb 0.00 in0.0 mm 0.00 in0.0 mm 0.00 in0.0 mm
03:55 PM 78.0°F25.6°C 63.9°F17.7°C 62% 12.0 mph N19.3 kmh N 18.0 mph29.0 kmh 30.00 in1015.9 mb 0.00 in0.0 mm 0.00 in0.0 mm 0.00 in0.0 mm
04:00 PM 78.3°F25.7°C 64.2°F17.9°C 62% 16.0 mph N25.7 kmh N 16.0 mph25.7 kmh 30.00 in1015.9 mb 0.00 in0.0 mm 0.00 in0.0 mm 0.00 in0.0 mm
04:05 PM 78.0°F25.6°C 63.9°F17.7°C 62% 13.0 mph N20.9 kmh N 16.0 mph25.7 kmh 30.00 in1015.9 mb 0.00 in0.0 mm 0.00 in0.0 mm 0.00 in0.0 mm
04:10 PM 77.9°F25.5°C 64.3°F17.9°C 63% 12.0 mph N19.3 kmh N 16.0 mph25.7 kmh 30.00 in1015.9 mb 0.00 in0.0 mm 0.00 in0.0 mm 0.00 in0.0 mm
04:15 PM 77.6°F25.3°C 62.6°F17.0°C 60% 6.0 mph N9.7 kmh N 14.0 mph22.5 kmh 30.00 in1015.9 mb 0.00 in0.0 mm 0.00 in0.0 mm 0.00 in0.0 mm
04:20 PM 77.7°F25.4°C 64.6°F18.1°C 64% 8.0 mph N12.9 kmh N 18.0 mph29.0 kmh 30.00 in1015.9 mb 0.00 in0.0 mm 0.00 in0.0 mm 0.00 in0.0 mm
04:25 PM 78.0°F25.6°C 64.4°F18.0°C 63% 9.0 mph N14.5 kmh N 18.0 mph29.0 kmh 30.00 in1015.9 mb 0.00 in0.0 mm 0.00 in0.0 mm 0.00 in0.0 mm
04:30 PM 78.4°F25.8°C 64.3°F17.9°C 62% 8.0 mph N12.9 kmh N 9.0 mph14.5 kmh 30.01 in1016.3 mb 0.00 in0.0 mm 0.00 in0.0 mm 0.00 in0.0 mm
04:35 PM 78.2°F25.7°C 65.0°F18.3°C 64% 11.0 mph N17.7 kmh N 15.0 mph24.1 kmh 30.01 in1016.3 mb 0.00 in0.0 mm 0.00 in0.0 mm 0.00 in0.0 mm
04:40 PM 78.2°F25.7°C 63.2°F17.3°C 60% 5.0 mph N8.0 kmh N 17.0 mph27.4 kmh 30.01 in1016.3 mb 0.00 in0.0 mm 0.00 in0.0 mm 0.00 in0.0 mm
04:45 PM 78.1°F25.6°C 63.6°F17.6°C 61% 9.0 mph N14.5 kmh N 14.0 mph22.5 kmh 30.01 in1016.3 mb 0.00 in0.0 mm 0.00 in0.0 mm 0.00 in0.0 mm
04:50 PM 78.2°F25.7°C 64.6°F18.1°C 63% 3.0 mph N4.8 kmh N 16.0 mph25.7 kmh 30.01 in1016.3 mb 0.00 in0.0 mm 0.00 in0.0 mm 0.00 in0.0 mm
04:55 PM 78.5°F25.8°C 62.5°F16.9°C 58% 12.0 mph N19.3 kmh N 19.0 mph30.6 kmh 30.01 in1016.3 mb 0.00 in0.0 mm 0.00 in0.0 mm 0.00 in0.0 mm
05:00 PM 78.2°F25.7°C 63.2°F17.3°C 60% 14.0 mph N22.5 kmh N 18.0 mph29.0 kmh 30.00 in1015.9 mb 0.00 in0.0 mm 0.00 in0.0 mm 0.00 in0.0 mm
05:05 PM 78.3°F25.7°C 63.3°F17.4°C 60% 9.0 mph N14.5 kmh N 18.0 mph29.0 kmh 30.01 in1016.3 mb 0.00 in0.0 mm 0.00 in0.0 mm 0.00 in0.0 mm
05:10 PM 78.4°F25.8°C 63.9°F17.7°C 61% 6.0 mph N9.7 kmh N 18.0 mph29.0 kmh 30.01 in1016.3 mb 0.00 in0.0 mm 0.00 in0.0 mm 0.00 in0.0 mm
05:15 PM 78.6°F25.9°C 63.6°F17.6°C 60% 9.0 mph N14.5 kmh N 9.0 mph14.5 kmh 30.01 in1016.3 mb 0.00 in0.0 mm 0.00 in0.0 mm 0.00 in0.0 mm
05:20 PM 78.5°F25.8°C 63.5°F17.5°C 60% 7.0 mph N11.3 kmh N 14.0 mph22.5 kmh 30.01 in1016.3 mb 0.00 in0.0 mm 0.00 in0.0 mm 0.00 in0.0 mm
05:25 PM 78.7°F25.9°C 63.2°F17.3°C 59% 9.0 mph N14.5 kmh N 17.0 mph27.4 kmh 30.01 in1016.3 mb 0.00 in0.0 mm 0.00 in0.0 mm 0.00 in0.0 mm
05:30 PM 78.7°F25.9°C 63.7°F17.6°C 60% 6.0 mph N9.7 kmh N 8.0 mph12.9 kmh 30.01 in1016.3 mb 0.00 in0.0 mm 0.00 in0.0 mm 0.00 in0.0 mm
05:35 PM 78.7°F25.9°C 64.6°F18.1°C 62% 9.0 mph N14.5 kmh N 15.0 mph24.1 kmh 30.01 in1016.3 mb 0.00 in0.0 mm 0.00 in0.0 mm 0.00 in0.0 mm
05:40 PM 79.0°F26.1°C 64.4°F18.0°C 61% 5.0 mph N8.0 kmh N 15.0 mph24.1 kmh 30.01 in1016.3 mb 0.00 in0.0 mm 0.00 in0.0 mm 0.00 in0.0 mm
05:45 PM 79.1°F26.2°C 63.6°F17.6°C 59% 9.0 mph N14.5 kmh N 18.0 mph29.0 kmh 30.01 in1016.3 mb 0.00 in0.0 mm 0.00 in0.0 mm 0.00 in0.0 mm
05:50 PM 79.0°F26.1°C 63.5°F17.5°C 59% 9.0 mph N14.5 kmh N 18.0 mph29.0 kmh 30.01 in1016.3 mb 0.00 in0.0 mm 0.00 in0.0 mm 0.00 in0.0 mm
05:55 PM 79.0°F26.1°C 63.9°F17.7°C 60% 10.0 mph N16.1 kmh N 18.0 mph29.0 kmh 30.01 in1016.3 mb 0.00 in0.0 mm 0.00 in0.0 mm 0.00 in0.0 mm
06:00 PM 79.1°F26.2°C 63.6°F17.6°C 59% Calm Calm 6.0 mph9.7 kmh 30.01 in1016.3 mb 0.00 in0.0 mm 0.00 in0.0 mm 0.00 in0.0 mm
06:05 PM 78.9°F26.1°C 63.4°F17.4°C 59% 9.0 mph N14.5 kmh N 14.0 mph22.5 kmh 30.01 in1016.3 mb 0.00 in0.0 mm 0.00 in0.0 mm 0.00 in0.0 mm
06:10 PM 78.9°F26.1°C 63.4°F17.4°C 59% 13.0 mph N20.9 kmh N 15.0 mph24.1 kmh 30.02 in1016.6 mb 0.00 in0.0 mm 0.00 in0.0 mm 0.00 in0.0 mm
06:15 PM 78.9°F26.1°C 63.9°F17.7°C 60% 6.0 mph N9.7 kmh N 7.0 mph11.3 kmh 30.01 in1016.3 mb 0.00 in0.0 mm 0.00 in0.0 mm 0.00 in0.0 mm
06:20 PM 78.9°F26.1°C 63.9°F17.7°C 60% 5.0 mph N8.0 kmh N 15.0 mph24.1 kmh 30.01 in1016.3 mb 0.00 in0.0 mm 0.00 in0.0 mm 0.00 in0.0 mm
06:25 PM 78.9°F26.1°C 63.4°F17.4°C 59% 3.0 mph N4.8 kmh N 15.0 mph24.1 kmh 30.01 in1016.3 mb 0.00 in0.0 mm 0.00 in0.0 mm 0.00 in0.0 mm
06:30 PM 78.8°F26.0°C 64.2°F17.9°C 61% 10.0 mph N16.1 kmh N 11.0 mph17.7 kmh 30.01 in1016.3 mb 0.00 in0.0 mm 0.00 in0.0 mm 0.00 in0.0 mm
06:35 PM 78.7°F25.9°C 63.7°F17.6°C 60% 5.0 mph N8.0 kmh N 17.0 mph27.4 kmh 30.01 in1016.3 mb 0.00 in0.0 mm 0.00 in0.0 mm 0.00 in0.0 mm
06:40 PM 78.6°F25.9°C 64.0°F17.8°C 61% 8.0 mph N12.9 kmh N 17.0 mph27.4 kmh 30.01 in1016.3 mb 0.00 in0.0 mm 0.00 in0.0 mm 0.00 in0.0 mm
06:45 PM 78.6°F25.9°C 64.0°F17.8°C 61% 11.0 mph N17.7 kmh N 12.0 mph19.3 kmh 30.01 in1016.3 mb 0.00 in0.0 mm 0.00 in0.0 mm 0.00 in0.0 mm
06:50 PM 78.6°F25.9°C 64.5°F18.1°C 62% 9.0 mph N14.5 kmh N 12.0 mph19.3 kmh 30.01 in1016.3 mb 0.00 in0.0 mm 0.00 in0.0 mm 0.00 in0.0 mm
06:55 PM 78.5°F25.8°C 63.0°F17.2°C 59% 8.0 mph N12.9 kmh N 15.0 mph24.1 kmh 30.01 in1016.3 mb 0.00 in0.0 mm 0.00 in0.0 mm 0.00 in0.0 mm
07:00 PM 78.4°F25.8°C 62.9°F17.2°C 59% 9.0 mph N14.5 kmh N 9.0 mph14.5 kmh 30.01 in1016.3 mb 0.00 in0.0 mm 0.00 in0.0 mm 0.00 in0.0 mm
07:05 PM 78.2°F25.7°C 62.7°F17.1°C 59% 5.0 mph N8.0 kmh N 13.0 mph20.9 kmh 30.01 in1016.3 mb 0.00 in0.0 mm 0.00 in0.0 mm 0.00 in0.0 mm
07:10 PM 78.0°F25.6°C 63.9°F17.7°C 62% 3.0 mph N4.8 kmh N 13.0 mph20.9 kmh 30.02 in1016.6 mb 0.00 in0.0 mm 0.00 in0.0 mm 0.00 in0.0 mm
07:15 PM 77.8°F25.4°C 63.8°F17.7°C 62% 9.0 mph N14.5 kmh N 9.0 mph14.5 kmh 30.02 in1016.6 mb 0.00 in0.0 mm 0.00 in0.0 mm 0.00 in0.0 mm
07:20 PM 77.5°F25.3°C 63.0°F17.2°C 61% 5.0 mph N8.0 kmh N 15.0 mph24.1 kmh 30.02 in1016.6 mb 0.00 in0.0 mm 0.00 in0.0 mm 0.00 in0.0 mm
07:25 PM 77.3°F25.2°C 63.7°F17.6°C 63% 7.0 mph N11.3 kmh N 15.0 mph24.1 kmh 30.02 in1016.6 mb 0.00 in0.0 mm 0.00 in0.0 mm 0.00 in0.0 mm
07:30 PM 76.9°F24.9°C 63.8°F17.7°C 64% 3.0 mph N4.8 kmh N 8.0 mph12.9 kmh 30.02 in1016.6 mb 0.00 in0.0 mm 0.00 in0.0 mm 0.00 in0.0 mm
07:35 PM 76.5°F24.7°C 64.3°F17.9°C 66% 4.0 mph N6.4 kmh N 8.0 mph12.9 kmh 30.02 in1016.6 mb 0.00 in0.0 mm 0.00 in0.0 mm 0.00 in0.0 mm
07:40 PM 76.4°F24.7°C 64.6°F18.1°C 67% 6.0 mph N9.7 kmh N 10.0 mph16.1 kmh 30.02 in1016.6 mb 0.00 in0.0 mm 0.00 in0.0 mm 0.00 in0.0 mm
07:45 PM 76.3°F24.6°C 65.0°F18.3°C 68% 5.0 mph N8.0 kmh N 6.0 mph9.7 kmh 30.02 in1016.6 mb 0.00 in0.0 mm 0.00 in0.0 mm 0.00 in0.0 mm
07:50 PM 76.4°F24.7°C 65.1°F18.4°C 68% 5.0 mph N8.0 kmh N 8.0 mph12.9 kmh 30.02 in1016.6 mb 0.00 in0.0 mm 0.00 in0.0 mm 0.00 in0.0 mm
07:55 PM 76.4°F24.7°C 64.2°F17.9°C 66% 4.0 mph N6.4 kmh N 10.0 mph16.1 kmh 30.02 in1016.6 mb 0.00 in0.0 mm 0.00 in0.0 mm 0.00 in0.0 mm
08:00 PM 76.4°F24.7°C 64.2°F17.9°C 66% 3.0 mph N4.8 kmh N 7.0 mph11.3 kmh 30.02 in1016.6 mb 0.00 in0.0 mm 0.00 in0.0 mm 0.00 in0.0 mm
08:05 PM 76.4°F24.7°C 64.6°F18.1°C 67% 3.0 mph N4.8 kmh N 11.0 mph17.7 kmh 30.02 in1016.6 mb 0.00 in0.0 mm 0.00 in0.0 mm 0.00 in0.0 mm
08:10 PM 76.2°F24.6°C 64.5°F18.1°C 67% 3.0 mph N4.8 kmh N 11.0 mph17.7 kmh 30.02 in1016.6 mb 0.00 in0.0 mm 0.00 in0.0 mm 0.00 in0.0 mm
08:15 PM 76.1°F24.5°C 64.8°F18.2°C 68% 2.0 mph N3.2 kmh N 2.0 mph3.2 kmh 30.02 in1016.6 mb 0.00 in0.0 mm 0.00 in0.0 mm 0.00 in0.0 mm
08:20 PM 76.0°F24.4°C 65.1°F18.4°C 69% 5.0 mph N8.0 kmh N 7.0 mph11.3 kmh 30.02 in1016.6 mb 0.00 in0.0 mm 0.00 in0.0 mm 0.00 in0.0 mm
08:25 PM 75.9°F24.4°C 65.0°F18.3°C 69% 3.0 mph N4.8 kmh N 7.0 mph11.3 kmh 30.02 in1016.6 mb 0.00 in0.0 mm 0.00 in0.0 mm 0.00 in0.0 mm
08:30 PM 75.9°F24.4°C 65.0°F18.3°C 69% 1.0 mph N1.6 kmh N 3.0 mph4.8 kmh 30.02 in1016.6 mb 0.00 in0.0 mm 0.00 in0.0 mm 0.00 in0.0 mm
08:35 PM 75.8°F24.3°C 64.9°F18.3°C 69% 3.0 mph N4.8 kmh N 6.0 mph9.7 kmh 30.02 in1016.6 mb 0.00 in0.0 mm 0.00 in0.0 mm 0.00 in0.0 mm
08:40 PM 75.6°F24.2°C 65.1°F18.4°C 70% 2.0 mph N3.2 kmh N 6.0 mph9.7 kmh 30.02 in1016.6 mb 0.00 in0.0 mm 0.00 in0.0 mm 0.00 in0.0 mm
08:45 PM 75.2°F24.0°C 65.2°F18.4°C 71% 2.0 mph N3.2 kmh N 3.0 mph4.8 kmh 30.02 in1016.6 mb 0.00 in0.0 mm 0.00 in0.0 mm 0.00 in0.0 mm
08:50 PM 74.8°F23.8°C 64.8°F18.2°C 71% 1.0 mph N1.6 kmh N 6.0 mph9.7 kmh 30.02 in1016.6 mb 0.00 in0.0 mm 0.00 in0.0 mm 0.00 in0.0 mm
08:55 PM 74.5°F23.6°C 64.9°F18.3°C 72% 3.0 mph N4.8 kmh N 6.0 mph9.7 kmh 30.02 in1016.6 mb 0.00 in0.0 mm 0.00 in0.0 mm 0.00 in0.0 mm
09:00 PM 74.2°F23.4°C 64.6°F18.1°C 72% 2.0 mph N3.2 kmh N 2.0 mph3.2 kmh 30.02 in1016.6 mb 0.00 in0.0 mm 0.00 in0.0 mm 0.00 in0.0 mm
09:05 PM 73.9°F23.3°C 64.7°F18.2°C 73% 3.0 mph N4.8 kmh N 5.0 mph8.0 kmh 30.02 in1016.6 mb 0.00 in0.0 mm 0.00 in0.0 mm 0.00 in0.0 mm
09:10 PM 73.6°F23.1°C 64.8°F18.2°C 74% 1.0 mph N1.6 kmh N 5.0 mph8.0 kmh 30.02 in1016.6 mb 0.00 in0.0 mm 0.00 in0.0 mm 0.00 in0.0 mm
09:15 PM 73.3°F22.9°C 64.5°F18.1°C 74% 2.0 mph N3.2 kmh N 3.0 mph4.8 kmh 30.02 in1016.6 mb 0.00 in0.0 mm 0.00 in0.0 mm 0.00 in0.0 mm
09:20 PM 73.1°F22.8°C 64.7°F18.2°C 75% 2.0 mph N3.2 kmh N 3.0 mph4.8 kmh 30.02 in1016.6 mb 0.00 in0.0 mm 0.00 in0.0 mm 0.00 in0.0 mm
09:25 PM 72.8°F22.7°C 64.4°F18.0°C 75% Calm Calm 3.0 mph4.8 kmh 30.02 in1016.6 mb 0.00 in0.0 mm 0.00 in0.0 mm 0.00 in0.0 mm
09:30 PM 72.5°F22.5°C 64.5°F18.1°C 76% Calm Calm 1.0 mph1.6 kmh 30.02 in1016.6 mb 0.00 in0.0 mm 0.00 in0.0 mm 0.00 in0.0 mm
09:35 PM 72.3°F22.4°C 64.7°F18.2°C 77% Calm Calm 1.0 mph1.6 kmh 30.02 in1016.6 mb 0.00 in0.0 mm 0.00 in0.0 mm 0.00 in0.0 mm
09:40 PM 72.0°F22.2°C 64.4°F18.0°C 77% Calm Calm 1.0 mph1.6 kmh 30.03 in1016.9 mb 0.00 in0.0 mm 0.00 in0.0 mm 0.00 in0.0 mm
09:45 PM 71.6°F22.0°C 64.4°F18.0°C 78% Calm Calm -- 30.02 in1016.6 mb 0.00 in0.0 mm 0.00 in0.0 mm 0.00 in0.0 mm
09:50 PM 71.2°F21.8°C 64.7°F18.2°C 80% Calm Calm -- 30.03 in1016.9 mb 0.00 in0.0 mm 0.00 in0.0 mm 0.00 in0.0 mm
09:55 PM 70.8°F21.6°C 64.7°F18.2°C 81% Calm Calm -- 30.03 in1016.9 mb 0.00 in0.0 mm 0.00 in0.0 mm 0.00 in0.0 mm
10:00 PM 70.4°F21.3°C 64.7°F18.2°C 82% Calm Calm -- 30.04 in1017.3 mb 0.00 in0.0 mm 0.00 in0.0 mm 0.00 in0.0 mm
10:05 PM 70.0°F21.1°C 64.6°F18.1°C 83% Calm Calm -- 30.04 in1017.3 mb 0.00 in0.0 mm 0.00 in0.0 mm 0.00 in0.0 mm
10:10 PM 69.6°F20.9°C 64.6°F18.1°C 84% 1.0 mph N1.6 kmh N 1.0 mph1.6 kmh 30.04 in1017.3 mb 0.00 in0.0 mm 0.00 in0.0 mm 0.00 in0.0 mm
10:15 PM 69.3°F20.7°C 64.6°F18.1°C 85% Calm Calm -- 30.04 in1017.3 mb 0.00 in0.0 mm 0.00 in0.0 mm 0.00 in0.0 mm
10:20 PM 68.9°F20.5°C 64.6°F18.1°C 86% Calm Calm -- 30.04 in1017.3 mb 0.00 in0.0 mm 0.00 in0.0 mm 0.00 in0.0 mm
10:25 PM 68.5°F20.3°C 64.2°F17.9°C 86% Calm Calm -- 30.04 in1017.3 mb 0.00 in0.0 mm 0.00 in0.0 mm 0.00 in0.0 mm
10:30 PM 68.2°F20.1°C 64.2°F17.9°C 87% Calm Calm -- 30.04 in1017.3 mb 0.00 in0.0 mm 0.00 in0.0 mm 0.00 in0.0 mm
10:35 PM 67.9°F19.9°C 63.9°F17.7°C 87% Calm Calm 1.0 mph1.6 kmh 30.05 in1017.6 mb 0.00 in0.0 mm 0.00 in0.0 mm 0.00 in0.0 mm
10:40 PM 67.6°F19.8°C 63.9°F17.7°C 88% Calm Calm 1.0 mph1.6 kmh 30.05 in1017.6 mb 0.00 in0.0 mm 0.00 in0.0 mm 0.00 in0.0 mm
10:45 PM 67.4°F19.7°C 63.7°F17.6°C 88% Calm Calm -- 30.05 in1017.6 mb 0.00 in0.0 mm 0.00 in0.0 mm 0.00 in0.0 mm
10:50 PM 67.3°F19.6°C 63.6°F17.6°C 88% Calm Calm 1.0 mph1.6 kmh 30.05 in1017.6 mb 0.00 in0.0 mm 0.00 in0.0 mm 0.00 in0.0 mm
10:55 PM 67.1°F19.5°C 63.8°F17.7°C 89% Calm Calm 1.0 mph1.6 kmh 30.05 in1017.6 mb 0.00 in0.0 mm 0.00 in0.0 mm 0.00 in0.0 mm
11:00 PM 67.0°F19.4°C 63.7°F17.6°C 89% Calm Calm -- 30.05 in1017.6 mb 0.00 in0.0 mm 0.00 in0.0 mm 0.00 in0.0 mm
11:05 PM 66.8°F19.3°C 63.5°F17.5°C 89% Calm Calm -- 30.05 in1017.6 mb 0.00 in0.0 mm 0.00 in0.0 mm 0.00 in0.0 mm
11:10 PM 66.7°F19.3°C 63.4°F17.4°C 89% Calm Calm 1.0 mph1.6 kmh 30.05 in1017.6 mb 0.00 in0.0 mm 0.00 in0.0 mm 0.00 in0.0 mm
11:15 PM 66.5°F19.2°C 63.2°F17.3°C 89% Calm Calm -- 30.05 in1017.6 mb 0.00 in0.0 mm 0.00 in0.0 mm 0.00 in0.0 mm
11:20 PM 66.3°F19.1°C 63.0°F17.2°C 89% Calm Calm -- 30.04 in1017.3 mb 0.00 in0.0 mm 0.00 in0.0 mm 0.00 in0.0 mm
11:25 PM 66.1°F18.9°C 63.1°F17.3°C 90% Calm Calm -- 30.05 in1017.6 mb 0.00 in0.0 mm 0.00 in0.0 mm 0.00 in0.0 mm
11:30 PM 65.9°F18.8°C 62.9°F17.2°C 90% Calm Calm -- 30.05 in1017.6 mb 0.00 in0.0 mm 0.00 in0.0 mm 0.00 in0.0 mm
11:35 PM 65.7°F18.7°C 62.7°F17.1°C 90% Calm Calm -- 30.05 in1017.6 mb 0.00 in0.0 mm 0.00 in0.0 mm 0.00 in0.0 mm
11:40 PM 65.6°F18.7°C 62.6°F17.0°C 90% Calm Calm -- 30.05 in1017.6 mb 0.00 in0.0 mm 0.00 in0.0 mm 0.00 in0.0 mm
11:45 PM 65.4°F18.6°C 62.4°F16.9°C 90% Calm Calm -- 30.05 in1017.6 mb 0.00 in0.0 mm 0.00 in0.0 mm 0.00 in0.0 mm
11:50 PM 65.2°F18.4°C 62.2°F16.8°C 90% Calm Calm -- 30.05 in1017.6 mb 0.00 in0.0 mm 0.00 in0.0 mm 0.00 in0.0 mm
11:55 PM 65.0°F18.3°C 62.3°F16.8°C 91% Calm Calm -- 30.04 in1017.3 mb 0.00 in0.0 mm 0.00 in0.0 mm 0.00 in0.0 mm